Time;durP1;ratioP1;P1;durP2;ratioP2;P2;SDS_P1;SDS_P2;PMS_P1;PMS_P2;Temp;Humidity;BMP_temperature;BMP_pressure;BME280_temperature;BME280_humidity;BME280_pressure;Samples;Min_cycle;Max_cycle;Signal;HPM_P1;HPM_P2
2022/05/07 00:02:26;;;;;;;11.57;4.85;;;;;;;15.29;60.69;101946.44;4984364;28;20532;-67
2022/05/07 00:04:53;;;;;;;11.82;5.00;;;;;;;15.01;61.73;101944.88;4997380;28;20512;-69
2022/05/07 00:07:21;;;;;;;12.20;5.22;;;;;;;14.99;62.04;101938.84;5015385;28;20065;-70
2022/05/07 00:09:48;;;;;;;10.43;5.13;;;;;;;14.77;63.03;101936.03;5008852;28;20061;-68
2022/05/07 00:12:16;;;;;;;13.20;6.50;;;;;;;14.90;62.54;101940.72;4961979;28;20049;-68
2022/05/07 00:14:43;;;;;;;12.88;5.30;;;;;;;14.73;63.32;101939.75;5008947;28;20061;-68
2022/05/07 00:19:57;;;;;;;11.25;4.85;;;;;;;14.52;64.40;101928.28;5024188;28;20054;-71
2022/05/07 00:22:25;;;;;;;9.75;6.13;;;;;;;14.56;64.16;101932.88;4985444;28;20054;-68
2022/05/07 00:24:52;;;;;;;10.73;5.60;;;;;;;14.72;64.27;101933.38;5008844;28;20050;-70
2022/05/07 00:27:20;;;;;;;11.95;6.40;;;;;;;14.72;64.27;101936.13;5011487;28;20060;-69
2022/05/07 00:29:48;;;;;;;12.57;6.63;;;;;;;14.57;64.87;101934.50;4998011;28;20080;-69
2022/05/07 00:32:15;;;;;;;11.80;6.28;;;;;;;14.39;65.83;101948.50;4978162;28;20130;-67
2022/05/07 00:34:43;;;;;;;11.68;6.65;;;;;;;14.32;66.33;101937.84;5014878;28;20049;-70
2022/05/07 00:37:10;;;;;;;15.82;7.07;;;;;;;14.18;67.23;101931.44;5003218;28;20061;-68
2022/05/07 00:39:37;;;;;;;10.60;6.88;;;;;;;14.19;67.47;101932.28;5020115;28;20052;-69
2022/05/07 00:42:06;;;;;;;10.68;6.95;;;;;;;14.04;68.26;101932.56;4987859;28;20501;-69
2022/05/07 00:44:34;;;;;;;14.25;7.03;;;;;;;14.27;67.49;101926.88;4996444;28;20141;-67
2022/05/07 00:47:20;;;;;;;11.35;7.22;;;;;;;14.31;67.44;101918.75;4958392;28;20499;-68
2022/05/07 00:49:52;;;;;;;14.45;7.28;;;;;;;14.27;67.61;101920.50;4996748;28;20069;-67
2022/05/07 00:52:20;;;;;;;12.82;7.07;;;;;;;14.11;67.97;101921.91;4995618;28;20043;-69
2022/05/07 00:54:48;;;;;;;14.82;7.90;;;;;;;14.08;68.07;101919.75;4994774;28;20383;-68
2022/05/07 00:57:16;;;;;;;13.20;7.60;;;;;;;13.93;69.14;101922.84;4986683;28;20050;-68
2022/05/07 00:59:45;;;;;;;17.35;7.57;;;;;;;13.97;69.15;101921.06;4997298;28;20052;-68
2022/05/07 01:02:12;;;;;;;15.52;7.07;;;;;;;13.95;69.25;101915.00;4996701;28;20049;-67
2022/05/07 01:04:40;;;;;;;12.70;7.55;;;;;;;13.84;69.53;101917.19;5024580;28;20049;-68
2022/05/07 01:07:07;;;;;;;17.60;8.23;;;;;;;13.82;69.70;101918.59;4996690;28;20054;-68
2022/05/07 01:09:36;;;;;;;14.60;8.82;;;;;;;13.53;70.60;101918.84;4984145;28;20053;-70
2022/05/07 01:12:04;;;;;;;11.90;7.30;;;;;;;13.71;70.18;101917.13;4978756;28;20426;-68
2022/05/07 01:14:33;;;;;;;15.88;7.85;;;;;;;13.61;70.97;101911.78;4987929;28;20133;-67
2022/05/07 01:17:00;;;;;;;13.48;7.95;;;;;;;14.07;69.14;101915.34;5004144;28;20177;-68
2022/05/07 01:19:29;;;;;;;13.38;7.95;;;;;;;13.89;69.67;101914.31;4993635;28;20061;-68
2022/05/07 01:21:56;;;;;;;13.63;7.72;;;;;;;13.78;70.44;101917.56;4981463;28;20046;-68
2022/05/07 01:24:24;;;;;;;16.23;8.07;;;;;;;13.82;69.97;101919.44;5000969;28;20041;-63
2022/05/07 01:26:52;;;;;;;17.20;8.10;;;;;;;13.80;69.98;101918.09;4972574;28;20054;-62
2022/05/07 01:29:20;;;;;;;14.88;8.18;;;;;;;13.79;70.08;101919.22;5011850;28;20047;-62
2022/05/07 01:31:47;;;;;;;16.92;7.75;;;;;;;13.74;70.51;101925.66;4988214;28;20108;-63
2022/05/07 01:34:15;;;;;;;17.52;7.80;;;;;;;13.75;70.25;101920.94;5007907;28;20425;-62
2022/05/07 01:36:49;;;;;;;18.17;8.43;;;;;;;13.39;71.53;101912.44;4975249;28;20045;-62
2022/05/07 01:39:21;;;;;;;17.98;8.63;;;;;;;13.45;71.53;101908.47;4997048;28;20053;-63
2022/05/07 01:41:49;;;;;;;14.57;8.50;;;;;;;13.42;71.53;101912.66;5000466;28;20057;-62
2022/05/07 01:44:16;;;;;;;17.63;8.98;;;;;;;13.50;71.83;101911.16;5003744;28;20069;-66
2022/05/07 01:49:34;;;;;;;13.82;8.55;;;;;;;13.27;72.75;101909.34;5002648;28;20062;-63
2022/05/07 01:52:03;;;;;;;13.77;8.38;;;;;;;13.27;72.88;101912.09;5001582;28;20053;-62
2022/05/07 01:54:32;;;;;;;15.73;8.60;;;;;;;13.68;71.87;101909.44;4990435;28;20054;-64
2022/05/07 01:57:00;;;;;;;12.65;7.68;;;;;;;13.69;70.81;101916.63;5008222;28;20049;-64
2022/05/07 01:59:28;;;;;;;12.02;7.47;;;;;;;13.33;72.91;101910.91;4984386;28;20056;-62
2022/05/07 02:01:58;;;;;;;15.75;8.60;;;;;;;13.40;72.94;101901.09;4986703;28;20056;-65
2022/05/07 02:04:26;;;;;;;13.23;7.65;;;;;;;13.63;72.30;101902.06;5006784;28;20046;-62
2022/05/07 02:06:55;;;;;;;14.02;8.82;;;;;;;13.95;70.89;101899.22;4980366;28;20469;-63
2022/05/07 02:09:24;;;;;;;18.70;8.65;;;;;;;14.02;70.44;101899.63;4973926;28;20053;-63
2022/05/07 02:11:51;;;;;;;11.90;8.05;;;;;;;13.66;71.23;101906.16;4982175;28;20050;-62
2022/05/07 02:14:19;;;;;;;17.75;8.82;;;;;;;13.40;71.94;101905.81;4990545;28;20046;-63
2022/05/07 02:16:46;;;;;;;15.70;8.43;;;;;;;13.26;72.79;101903.00;4986871;28;20054;-64
2022/05/07 02:19:14;;;;;;;14.10;8.02;;;;;;;13.46;72.30;101908.19;4986929;28;20054;-63
2022/05/07 02:21:42;;;;;;;14.88;9.00;;;;;;;13.29;72.20;101896.84;4983213;28;20532;-63
2022/05/07 02:24:09;;;;;;;13.60;8.40;;;;;;;13.23;71.94;101908.31;5002345;28;20046;-64
2022/05/07 02:26:37;;;;;;;13.38;8.70;;;;;;;12.99;73.21;101902.84;4996993;28;20072;-62
2022/05/07 02:29:04;;;;;;;13.07;9.00;;;;;;;12.87;73.64;101898.91;4998181;28;20423;-64
2022/05/07 02:31:32;;;;;;;15.48;8.68;;;;;;;12.86;74.20;101900.03;4996557;28;20054;-62
2022/05/07 02:33:59;;;;;;;14.32;8.93;;;;;;;12.78;74.18;101907.03;5009531;28;20050;-62
2022/05/07 02:36:27;;;;;;;14.93;9.10;;;;;;;12.81;74.58;101898.19;4991126;28;20050;-62
2022/05/07 02:38:55;;;;;;;12.75;9.35;;;;;;;12.85;73.96;101903.94;4979567;28;20727;-63
2022/05/07 02:44:09;;;;;;;14.88;9.25;;;;;;;12.78;74.71;101896.00;4994397;28;20050;-62
2022/05/07 02:46:37;;;;;;;15.48;9.38;;;;;;;12.89;74.37;101908.56;5001234;28;20056;-62
2022/05/07 02:49:10;;;;;;;15.63;9.23;;;;;;;13.07;74.02;101905.00;4999086;28;20069;-64
2022/05/07 02:51:38;;;;;;;14.53;8.80;;;;;;;13.09;73.91;101893.63;4986276;28;20046;-63
2022/05/07 02:54:05;;;;;;;15.00;8.88;;;;;;;12.94;74.41;101902.09;4989031;28;20053;-62
2022/05/07 02:56:33;;;;;;;17.73;9.13;;;;;;;12.99;74.62;101902.06;4988473;28;20054;-66
2022/05/07 02:59:01;;;;;;;15.88;9.85;;;;;;;13.13;73.55;101903.75;4970199;28;20046;-62
2022/05/07 03:01:28;;;;;;;17.25;8.98;;;;;;;12.85;74.84;101899.19;5009829;28;20442;-63
2022/05/07 03:03:56;;;;;;;14.25;8.70;;;;;;;12.98;74.96;101897.63;4990003;28;20533;-63
2022/05/07 03:06:24;;;;;;;15.75;9.30;;;;;;;12.76;76.07;101901.00;4991289;28;20046;-64
2022/05/07 03:08:52;;;;;;;17.13;9.43;;;;;;;12.89;75.72;101903.03;5001102;28;20049;-63
2022/05/07 03:11:19;;;;;;;14.32;9.18;;;;;;;13.01;74.88;101894.25;5009661;28;20055;-63
2022/05/07 03:13:47;;;;;;;14.23;9.25;;;;;;;12.60;76.47;101899.59;5016187;28;20057;-63
2022/05/07 03:16:14;;;;;;;16.55;9.73;;;;;;;12.78;76.07;101892.44;4979168;28;20520;-62
2022/05/07 03:18:42;;;;;;;14.38;9.45;;;;;;;12.85;76.01;101895.63;4992406;28;20058;-69
2022/05/07 03:21:11;;;;;;;14.90;9.75;;;;;;;12.69;76.76;101884.00;4996870;28;20074;-68
2022/05/07 03:23:40;;;;;;;19.25;10.45;;;;;;;12.68;76.57;101892.56;4979548;28;20053;-69
2022/05/07 03:26:08;;;;;;;18.77;10.02;;;;;;;12.72;77.24;101901.91;4983016;28;20049;-68
2022/05/07 03:28:36;;;;;;;15.32;9.80;;;;;;;12.68;77.12;101904.44;4985651;28;20416;-69
2022/05/07 03:31:04;;;;;;;16.88;10.48;;;;;;;12.82;76.60;101898.97;5005097;28;20055;-69
2022/05/07 03:33:32;;;;;;;16.92;10.27;;;;;;;12.71;76.63;101908.56;5024921;28;20112;-68
2022/05/07 03:35:59;;;;;;;16.67;10.50;;;;;;;12.26;78.89;101902.53;5003907;28;20494;-68
2022/05/07 03:38:27;;;;;;;21.02;11.13;;;;;;;12.34;79.14;101903.81;4992001;28;20522;-68
2022/05/07 03:41:06;;;;;;;19.88;10.70;;;;;;;12.62;77.93;101893.75;4989195;28;20071;-66
2022/05/07 03:43:37;;;;;;;17.75;10.93;;;;;;;12.28;79.28;101889.25;4994774;28;20082;-68
2022/05/07 03:46:05;;;;;;;15.85;10.75;;;;;;;12.29;79.98;101890.09;4997796;28;20088;-66
2022/05/07 03:48:34;;;;;;;16.75;10.77;;;;;;;12.46;79.28;101882.91;4985151;28;20057;-66
2022/05/07 03:51:03;;;;;;;16.97;10.77;;;;;;;12.44;79.03;101892.63;4998081;28;20054;-67
2022/05/07 03:53:30;;;;;;;18.10;11.27;;;;;;;12.61;78.58;101884.63;4997520;28;20300;-67
2022/05/07 03:56:12;;;;;;;18.25;10.82;;;;;;;12.77;77.90;101883.28;4971394;28;20050;-66
2022/05/07 03:58:40;;;;;;;20.08;11.10;;;;;;;12.66;77.88;101886.53;4974362;28;20065;-67
2022/05/07 04:01:15;;;;;;;20.00;11.85;;;;;;;12.00;81.52;101878.28;4989585;28;20045;-66
2022/05/07 04:03:43;;;;;;;19.63;11.93;;;;;;;12.49;80.47;101881.50;4999497;28;20834;-66
2022/05/07 04:06:11;;;;;;;21.80;12.98;;;;;;;12.39;80.72;101876.94;5004536;28;20058;-67
2022/05/07 04:08:38;;;;;;;21.77;13.05;;;;;;;12.50;80.10;101883.13;5001275;28;20053;-67
2022/05/07 04:11:07;;;;;;;19.27;12.70;;;;;;;12.36;81.28;101879.50;4977980;28;20058;-68
2022/05/07 04:13:34;;;;;;;17.83;12.50;;;;;;;12.34;81.24;101878.97;4984937;28;20045;-67
2022/05/07 04:16:04;;;;;;;20.95;13.07;;;;;;;12.40;81.12;101878.59;4993959;28;20056;-67
2022/05/07 04:18:36;;;;;;;21.88;13.18;;;;;;;12.40;81.34;101881.34;4997593;28;20152;-67
2022/05/07 04:21:09;;;;;;;18.73;12.10;;;;;;;12.45;80.39;101878.50;4984767;28;20049;-68
2022/05/07 04:23:36;;;;;;;20.75;14.07;;;;;;;12.51;80.39;101875.66;4987905;28;20421;-67
2022/05/07 04:26:04;;;;;;;24.02;13.30;;;;;;;12.78;79.56;101875.84;4964007;28;20410;-62
2022/05/07 04:28:38;;;;;;;23.13;13.70;;;;;;;12.70;79.04;101890.31;5007022;28;20090;-62
2022/05/07 04:31:07;;;;;;;22.27;13.23;;;;;;;12.68;79.30;101879.56;4997425;28;20054;-63
2022/05/07 04:33:35;;;;;;;21.48;12.88;;;;;;;12.42;80.74;101881.03;5014998;28;20065;-62
2022/05/07 04:36:07;;;;;;;25.30;14.32;;;;;;;12.64;79.48;101884.03;4997314;28;20445;-61
2022/05/07 04:38:39;;;;;;;21.90;14.00;;;;;;;12.35;81.11;101888.88;4979491;28;20540;-61
2022/05/07 04:41:07;;;;;;;24.75;14.30;;;;;;;12.54;80.52;101889.72;4973643;28;20046;-61
2022/05/07 04:43:35;;;;;;;21.27;13.98;;;;;;;12.87;79.13;101880.38;4990194;28;20054;-61
2022/05/07 04:46:03;;;;;;;22.17;13.90;;;;;;;12.96;78.30;101874.97;4973809;28;20054;-62
2022/05/07 04:48:33;;;;;;;23.80;13.57;;;;;;;12.88;78.05;101884.78;4989499;28;20058;-63
2022/05/07 04:51:01;;;;;;;22.83;13.88;;;;;;;12.17;80.71;101887.72;5020052;28;20671;-62
2022/05/07 04:54:05;;;;;;;26.02;15.40;;;;;;;12.10;82.39;101895.53;4984559;28;20385;-62
2022/05/07 04:56:32;;;;;;;26.98;14.38;;;;;;;12.04;83.09;101885.69;4994006;28;20390;-62
2022/05/07 04:59:03;;;;;;;21.08;14.30;;;;;;;12.02;82.68;101879.63;4989287;28;20078;-61
2022/05/07 05:01:52;;;;;;;21.02;13.88;;;;;;;12.11;83.29;101880.63;4996273;28;20053;-67
2022/05/07 05:04:21;;;;;;;24.25;14.40;;;;;;;12.33;81.88;101875.38;4986020;28;20045;-68
2022/05/07 05:06:51;;;;;;;24.35;15.07;;;;;;;12.55;81.18;101888.63;5005540;28;20053;-69
2022/05/07 05:09:29;;;;;;;25.10;15.05;;;;;;;12.80;79.13;101879.09;4979517;28;20050;-68
2022/05/07 05:12:04;;;;;;;25.55;15.40;;;;;;;12.69;79.85;101870.16;4997131;28;20062;-68
2022/05/07 05:17:28;;;;;;;23.98;15.77;;;;;;;12.85;79.37;101890.91;4990655;28;20054;-68
2022/05/07 05:19:56;;;;;;;22.15;14.98;;;;;;;12.98;78.78;101892.09;4977403;28;20057;-69
2022/05/07 05:22:24;;;;;;;31.13;15.48;;;;;;;12.96;78.83;101881.34;4990160;28;20061;-67
2022/05/07 05:24:52;;;;;;;24.98;16.50;;;;;;;12.71;79.14;101884.47;5010257;28;20682;-69
2022/05/07 05:27:20;;;;;;;26.85;16.20;;;;;;;12.76;79.97;101878.06;4988160;28;20062;-67
2022/05/07 05:29:49;;;;;;;24.83;15.80;;;;;;;12.58;80.45;101874.19;4977994;28;20498;-68
2022/05/07 05:32:18;;;;;;;25.53;16.57;;;;;;;12.19;82.47;101879.97;4977240;28;20050;-69
2022/05/07 05:34:53;;;;;;;27.92;16.75;;;;;;;12.14;83.59;101870.91;4976930;28;20046;-68
2022/05/07 05:37:30;;;;;;;29.33;15.95;;;;;;;12.29;83.25;101870.75;4968551;28;20057;-68
2022/05/07 05:39:57;;;;;;;23.85;15.68;;;;;;;12.71;80.96;101876.19;5000430;28;20065;-67
2022/05/07 05:42:28;;;;;;;27.05;16.60;;;;;;;12.63;80.99;101874.09;4987431;28;20058;-67
2022/05/07 05:44:55;;;;;;;24.75;16.42;;;;;;;12.43;82.27;101883.50;4991633;28;20056;-68
2022/05/07 05:47:24;;;;;;;26.58;15.75;;;;;;;12.20;83.40;101881.59;4996319;28;20057;-69
2022/05/07 05:49:53;;;;;;;25.58;16.02;;;;;;;12.50;82.79;101888.66;4989813;28;20054;-68
2022/05/07 05:52:27;;;;;;;25.38;15.50;;;;;;;12.70;81.57;101885.63;5001564;28;20540;-68
2022/05/07 05:54:55;;;;;;;33.30;17.35;;;;;;;12.84;80.97;101883.75;4996377;28;20042;-68
2022/05/07 05:57:22;;;;;;;26.05;17.05;;;;;;;12.72;80.33;101885.31;5001048;28;20046;-68
2022/05/07 05:59:50;;;;;;;24.45;15.88;;;;;;;12.54;81.57;101886.94;4975967;28;20069;-68
2022/05/07 06:02:18;;;;;;;29.58;16.73;;;;;;;12.44;82.40;101887.09;5010760;28;20052;-67
2022/05/07 06:04:56;;;;;;;24.92;15.10;;;;;;;12.54;82.19;101891.66;4965115;28;20055;-62
2022/05/07 06:07:27;;;;;;;26.10;16.48;;;;;;;12.52;82.96;101891.94;4997739;28;20054;-62
2022/05/07 06:09:59;;;;;;;26.50;17.15;;;;;;;12.28;83.42;101893.94;4984119;28;20054;-64
2022/05/07 06:12:29;;;;;;;28.25;16.90;;;;;;;12.11;85.55;101888.09;4986740;28;20088;-62
2022/05/07 06:14:57;;;;;;;27.33;16.98;;;;;;;12.18;84.82;101888.56;5001335;28;20502;-62
2022/05/07 06:17:28;;;;;;;28.25;17.33;;;;;;;12.33;84.47;101882.81;4984378;28;20046;-63
2022/05/07 06:19:56;;;;;;;27.25;16.73;;;;;;;12.23;84.18;101883.78;4999532;28;20070;-62
2022/05/07 06:22:24;;;;;;;30.40;17.30;;;;;;;12.21;84.64;101885.19;4999430;28;20394;-62
2022/05/07 06:27:54;;;;;;;24.13;16.58;;;;;;;12.78;82.76;101892.44;4974506;28;20149;-62
2022/05/07 06:30:29;;;;;;;21.83;16.17;;;;;;;13.21;80.82;101897.56;4969187;28;20054;-62
2022/05/07 06:33:58;;;;;;;25.48;15.68;;;;;;;13.07;79.98;101902.22;5001887;28;20081;-63
2022/05/07 06:36:27;;;;;;;27.30;16.85;;;;;;;12.72;81.14;101912.97;4985914;28;20058;-67
2022/05/07 06:38:55;;;;;;;28.13;17.13;;;;;;;12.70;82.41;101913.25;4981741;28;20057;-69
2022/05/07 06:41:26;;;;;;;34.75;19.65;;;;;;;12.13;85.48;101930.06;4963718;28;20058;-62
2022/05/07 06:44:01;;;;;;;30.15;18.35;;;;;;;12.43;84.52;101944.28;4995290;28;20061;-62
2022/05/07 06:46:32;;;;;;;26.55;18.30;;;;;;;12.58;84.04;101940.53;4995100;28;20054;-63
2022/05/07 06:49:06;;;;;;;25.25;17.17;;;;;;;12.53;83.97;101925.94;5008645;28;20060;-63
2022/05/07 06:52:00;;;;;;;29.50;18.58;;;;;;;12.36;84.29;101937.50;4991725;28;20058;-68
2022/05/07 06:54:28;;;;;;;29.13;18.60;;;;;;;12.17;85.16;101939.38;4997780;28;20050;-68
2022/05/07 06:56:55;;;;;;;29.98;18.98;;;;;;;12.41;85.36;101926.38;5002436;28;20045;-63
2022/05/07 06:59:22;;;;;;;34.17;20.17;;;;;;;12.24;85.85;101945.38;4998965;28;20057;-69
2022/05/07 07:01:50;;;;;;;35.17;19.10;;;;;;;12.48;85.34;101947.00;5017111;28;20054;-63
2022/05/07 07:04:17;;;;;;;32.47;19.77;;;;;;;12.09;86.12;101954.69;5008082;28;20089;-64
2022/05/07 07:06:44;;;;;;;28.40;18.15;;;;;;;12.28;86.09;101947.25;5019752;28;20496;-66
2022/05/07 07:09:12;;;;;;;27.55;17.80;;;;;;;12.55;84.21;101951.34;5012840;28;20076;-67
2022/05/07 07:11:39;;;;;;;30.40;18.17;;;;;;;12.03;87.10;101933.75;5014169;28;20046;-64
2022/05/07 07:14:07;;;;;;;28.65;17.55;;;;;;;12.43;86.64;101941.53;4986490;28;20138;-65
2022/05/07 07:16:35;;;;;;;30.48;17.15;;;;;;;12.70;85.81;101938.13;5010220;28;20065;-63
2022/05/07 07:19:04;;;;;;;29.27;17.50;;;;;;;12.47;84.58;101936.25;5010849;28;20050;-65
2022/05/07 07:21:31;;;;;;;25.08;17.02;;;;;;;12.97;84.26;101929.19;4994040;28;20620;-66
2022/05/07 07:23:59;;;;;;;23.45;16.67;;;;;;;13.41;81.30;101933.19;5010082;28;20046;-65
2022/05/07 07:26:27;;;;;;;27.73;17.13;;;;;;;13.36;79.54;101941.56;5012079;28;20056;-66
2022/05/07 07:28:56;;;;;;;29.80;17.10;;;;;;;12.93;83.00;101941.97;4991271;28;20052;-70
2022/05/07 07:31:23;;;;;;;27.77;16.73;;;;;;;13.24;81.93;101938.44;4972719;28;20057;-70
2022/05/07 07:33:51;;;;;;;32.47;16.70;;;;;;;13.00;82.31;101943.25;5009870;28;20081;-70
2022/05/07 07:36:18;;;;;;;23.33;15.65;;;;;;;13.15;81.59;101937.50;5009820;28;20054;-71
2022/05/07 07:38:46;;;;;;;28.70;16.60;;;;;;;13.11;81.06;101938.41;4995343;28;20045;-69
2022/05/07 07:41:13;;;;;;;28.88;14.63;;;;;;;13.38;81.72;101938.50;4978396;28;20520;-71
2022/05/07 07:43:40;;;;;;;22.73;15.70;;;;;;;13.53;79.60;101941.81;5018913;28;20064;-66
2022/05/07 07:48:54;;;;;;;27.88;15.98;;;;;;;13.78;79.52;101937.78;4993266;28;20532;-66
2022/05/07 07:51:21;;;;;;;26.83;16.25;;;;;;;13.39;80.16;101934.59;4978931;28;20069;-64
2022/05/07 07:53:49;;;;;;;25.70;16.67;;;;;;;13.63;79.54;101938.06;4998052;28;20045;-65
2022/05/07 07:56:18;;;;;;;25.05;16.15;;;;;;;13.70;78.36;101940.44;5004667;28;20048;-67
2022/05/07 07:58:45;;;;;;;27.13;16.42;;;;;;;13.47;79.29;101940.28;5004677;28;20045;-67
2022/05/07 08:01:12;;;;;;;25.77;16.10;;;;;;;13.40;79.68;101939.03;5014862;28;20497;-68
2022/05/07 08:03:40;;;;;;;23.42;15.40;;;;;;;13.56;79.71;101935.66;5012949;28;20058;-67
2022/05/07 08:06:08;;;;;;;25.83;14.60;;;;;;;14.14;78.02;101930.41;4991945;28;20046;-69
2022/05/07 08:14:08;;;;;;;25.73;14.93;;;;;;;14.00;77.84;101931.56;5015247;28;20049;-68
2022/05/07 08:16:37;;;;;;;22.88;15.45;;;;;;;14.22;76.22;101923.34;4997668;28;20046;-64
2022/05/07 08:19:06;;;;;;;23.17;14.57;;;;;;;14.16;76.24;101921.78;4994164;28;20060;-67
2022/05/07 08:21:33;;;;;;;23.63;13.75;;;;;;;13.95;77.37;101920.56;4996163;28;20077;-70
2022/05/07 08:24:01;;;;;;;21.63;14.65;;;;;;;14.27;76.18;101924.09;5012823;28;20065;-65
2022/05/07 08:26:28;;;;;;;21.17;13.65;;;;;;;13.88;77.49;101931.25;4978299;28;20054;-66
2022/05/07 08:28:56;;;;;;;24.48;13.85;;;;;;;14.09;76.86;101922.22;5011820;28;20084;-67
2022/05/07 08:31:24;;;;;;;24.58;13.80;;;;;;;14.71;74.97;101920.66;4981060;28;20049;-67
2022/05/07 08:33:54;;;;;;;21.73;14.02;;;;;;;15.09;72.77;101921.97;5007291;28;20071;-65
2022/05/07 08:36:22;;;;;;;23.48;14.18;;;;;;;14.55;74.35;101920.16;5011481;28;20519;-65
2022/05/07 08:38:49;;;;;;;24.58;14.32;;;;;;;14.55;75.02;101920.16;5010478;28;20057;-65
2022/05/07 08:41:18;;;;;;;22.85;14.13;;;;;;;14.61;74.39;101929.16;5009219;28;20041;-66
2022/05/07 08:43:46;;;;;;;21.48;13.18;;;;;;;14.89;73.75;101927.97;4994312;28;20087;-65
2022/05/07 08:46:18;;;;;;;23.60;12.80;;;;;;;15.05;72.70;101922.88;5012537;28;20053;-67
2022/05/07 08:48:47;;;;;;;22.73;13.57;;;;;;;15.11;72.51;101921.63;4987448;28;20406;-65
2022/05/07 08:51:17;;;;;;;24.10;14.57;;;;;;;15.13;72.12;101922.16;5006799;28;20053;-65
2022/05/07 08:53:49;;;;;;;19.98;13.20;;;;;;;15.94;70.80;101921.69;4989406;28;20053;-67
2022/05/07 08:56:17;;;;;;;21.23;13.48;;;;;;;15.54;69.70;101920.84;5007243;28;20038;-70
2022/05/07 08:58:50;;;;;;;24.08;13.40;;;;;;;15.17;71.75;101915.66;5005186;28;20052;-71
2022/05/07 09:01:18;;;;;;;21.45;13.90;;;;;;;15.00;71.95;101920.22;4994326;28;20041;-71
2022/05/07 09:03:47;;;;;;;26.35;15.88;;;;;;;15.48;71.01;101922.09;4993827;28;20417;-70
2022/05/07 09:06:22;;;;;;;19.58;12.65;;;;;;;15.62;70.00;101922.84;4996045;28;20057;-66
2022/05/07 09:08:51;;;;;;;17.17;11.45;;;;;;;15.62;70.59;101919.25;4989714;28;20048;-68
2022/05/07 09:11:19;;;;;;;20.20;12.02;;;;;;;16.09;69.47;101910.16;4994324;28;20110;-68
2022/05/07 09:13:47;;;;;;;26.63;15.05;;;;;;;16.43;67.04;101920.56;4984203;28;20398;-68
2022/05/07 09:16:15;;;;;;;27.00;13.60;;;;;;;16.31;67.66;101907.28;4996519;28;20085;-73
2022/05/07 09:18:48;;;;;;;21.65;13.88;;;;;;;15.51;70.19;101915.94;5008727;28;20054;-73
2022/05/07 09:21:16;;;;;;;23.65;13.88;;;;;;;15.81;69.67;101908.75;4991206;28;20054;-72
2022/05/07 09:23:55;;;;;;;20.10;12.98;;;;;;;15.32;70.62;101911.69;4961719;28;20057;-70
2022/05/07 09:26:31;;;;;;;25.63;13.52;;;;;;;15.33;70.47;101908.59;4971917;28;20054;-71
2022/05/07 09:29:03;;;;;;;20.77;12.52;;;;;;;15.54;70.46;101906.97;4975777;28;20053;-63
2022/05/07 09:31:32;;;;;;;20.13;13.00;;;;;;;15.40;70.64;101897.06;5008734;28;20053;-64
2022/05/07 09:36:56;;;;;;;25.40;12.95;;;;;;;15.67;70.09;101892.16;4976938;28;20500;-70
2022/05/07 09:39:31;;;;;;;20.60;12.25;;;;;;;15.52;70.24;101900.91;5011625;28;20769;-69
2022/05/07 09:41:58;;;;;;;19.98;11.95;;;;;;;15.84;69.52;101902.53;4990903;28;20413;-64
2022/05/07 09:44:28;;;;;;;19.50;12.05;;;;;;;16.02;68.82;101893.16;4980362;28;20116;-64
2022/05/07 09:46:56;;;;;;;22.70;12.52;;;;;;;16.24;68.09;101901.38;5010576;28;20049;-65
2022/05/07 09:49:28;;;;;;;19.48;12.55;;;;;;;15.96;69.00;101899.16;5016977;28;20409;-71
2022/05/07 09:51:56;;;;;;;19.00;12.85;;;;;;;16.03;68.06;101893.94;5012629;28;20056;-65
2022/05/07 09:59:56;;;;;;;17.63;11.68;;;;;;;16.19;67.53;101889.59;5010575;28;20603;-65
2022/05/07 10:02:50;;;;;;;16.80;10.90;;;;;;;16.19;67.85;101884.84;4972342;28;20050;-66
2022/05/07 10:05:40;;;;;;;17.90;10.23;;;;;;;17.02;66.00;101888.41;4992125;28;20074;-73
2022/05/07 10:08:31;;;;;;;19.75;11.70;;;;;;;16.40;66.80;101882.28;5009867;28;20057;-72
2022/05/07 10:10:59;;;;;;;17.58;11.63;;;;;;;16.29;67.36;101887.34;5011965;28;20057;-70
2022/05/07 10:13:26;;;;;;;18.95;11.10;;;;;;;16.67;66.25;101885.63;5012665;28;20041;-65
2022/05/07 10:15:59;;;;;;;17.45;11.55;;;;;;;16.58;66.47;101889.56;4995041;28;20054;-70
2022/05/07 10:18:35;;;;;;;18.10;10.82;;;;;;;16.66;65.73;101888.75;4993607;28;20046;-67
2022/05/07 10:21:17;;;;;;;16.52;10.57;;;;;;;16.54;66.41;101883.00;4993114;28;20054;-68
2022/05/07 10:24:03;;;;;;;17.75;11.02;;;;;;;16.99;64.70;101884.31;5009726;28;20489;-70
2022/05/07 10:26:39;;;;;;;16.67;10.23;;;;;;;17.51;63.26;101880.34;4994053;28;20062;-72
2022/05/07 10:29:07;;;;;;;17.77;10.88;;;;;;;17.50;62.65;101884.28;5010794;28;20058;-71
2022/05/07 10:31:45;;;;;;;17.77;11.45;;;;;;;17.74;62.66;101884.53;5009844;28;20053;-69
2022/05/07 10:34:26;;;;;;;17.65;10.95;;;;;;;18.05;61.63;101887.03;4992384;28;20998;-70
2022/05/07 10:37:05;;;;;;;17.77;10.60;;;;;;;17.29;62.39;101893.63;5009808;28;20049;-70
2022/05/07 10:39:36;;;;;;;17.77;10.05;;;;;;;17.12;63.81;101868.59;5006681;28;20059;-71
2022/05/07 10:42:16;;;;;;;18.48;10.68;;;;;;;17.23;63.71;101873.50;5009172;28;20370;-72
2022/05/07 10:44:45;;;;;;;15.00;9.43;;;;;;;17.26;62.98;101872.81;4992344;28;20129;-73
2022/05/07 10:47:15;;;;;;;14.38;9.15;;;;;;;17.31;63.29;101881.00;4987510;28;20050;-70
2022/05/07 10:49:54;;;;;;;14.45;9.88;;;;;;;17.38;62.21;101875.75;4986076;28;20057;-71
2022/05/07 10:52:32;;;;;;;14.93;8.87;;;;;;;17.49;62.06;101877.06;4998373;28;20062;-69
2022/05/07 10:55:07;;;;;;;14.68;9.23;;;;;;;17.74;61.22;101878.16;4987362;28;20046;-78
2022/05/07 10:57:43;;;;;;;14.55;8.80;;;;;;;17.78;61.04;101879.13;5001575;28;20054;-75
2022/05/07 11:00:16;;;;;;;12.88;8.40;;;;;;;18.02;60.17;101873.75;4981991;28;20065;-72
2022/05/07 11:02:45;;;;;;;13.75;8.40;;;;;;;18.01;60.32;101871.31;5005856;28;20046;-72
2022/05/07 11:05:14;;;;;;;15.30;9.25;;;;;;;18.32;59.22;101861.47;4986155;28;20049;-73
2022/05/07 11:07:42;;;;;;;18.00;9.95;;;;;;;18.61;58.57;101866.22;4990948;28;20049;-72
2022/05/07 11:10:11;;;;;;;12.20;8.95;;;;;;;18.56;57.83;101858.88;4987728;28;20054;-66
2022/05/07 11:12:39;;;;;;;13.25;8.50;;;;;;;18.38;58.00;101850.91;5004150;28;20046;-67
2022/05/07 11:15:07;;;;;;;13.18;8.38;;;;;;;18.51;58.30;101852.66;5009315;28;20053;-66
2022/05/07 11:17:36;;;;;;;16.65;8.68;;;;;;;18.27;58.55;101847.69;4992840;28;20081;-72
2022/05/07 11:20:27;;;;;;;15.50;8.65;;;;;;;18.46;58.58;101847.28;5003486;28;20041;-70
2022/05/07 11:22:59;;;;;;;15.63;9.27;;;;;;;18.56;58.48;101839.34;4997233;28;20053;-69
2022/05/07 11:25:27;;;;;;;15.05;8.73;;;;;;;18.48;58.46;101842.97;4969047;28;20057;-69
2022/05/07 11:27:57;;;;;;;21.75;10.02;;;;;;;18.19;59.11;101847.75;4993440;28;20556;-64
2022/05/07 11:30:25;;;;;;;;;;;;;;;18.17;60.00;101848.09;4959270;28;20066;-64
2022/05/07 11:32:54;;;;;;;13.73;9.82;;;;;;;18.06;59.40;101844.06;4975253;28;19926;-66
2022/05/07 11:35:25;;;;;;;17.88;8.85;;;;;;;18.44;58.64;101836.47;5009253;28;20054;-65
2022/05/07 11:37:53;;;;;;;13.40;8.65;;;;;;;18.40;58.64;101846.66;5007569;28;20057;-66
2022/05/07 11:40:28;;;;;;;13.65;8.75;;;;;;;18.19;59.15;101856.13;5012797;28;20500;-67
2022/05/07 11:45:41;;;;;;;15.63;8.55;;;;;;;18.24;58.84;101856.75;5011437;28;20444;-72
2022/05/07 11:48:14;;;;;;;15.32;9.18;;;;;;;17.81;60.79;101848.63;5009731;28;20034;-69
2022/05/07 11:50:50;;;;;;;14.13;8.93;;;;;;;18.26;59.49;101834.09;4997694;28;20493;-63
2022/05/07 11:53:20;;;;;;;15.27;8.60;;;;;;;18.27;59.05;101838.53;5008425;28;20413;-72
2022/05/07 11:55:49;;;;;;;15.00;9.00;;;;;;;18.32;59.30;101841.13;4991733;28;20053;-71
2022/05/07 11:58:23;;;;;;;18.05;9.85;;;;;;;18.09;59.00;101845.34;5009571;28;20042;-67
2022/05/07 12:00:55;;;;;;;15.05;8.18;;;;;;;18.40;57.72;101829.94;4995303;28;20046;-66